Time;durP1;ratioP1;P1;durP2;ratioP2;P2;SDS_P1;SDS_P2;PMS_P1;PMS_P2;Temp;Humidity;BMP_temperature;BMP_pressure;BME280_temperature;BME280_humidity;BME280_pressure;Samples;Min_cycle;Max_cycle;Signal;HPM_P1;HPM_P2
2021/07/26 00:01:03;;;;;;;5.10;4.70;;;22.40;69.30;;;;;;4954322;28;20199;-51
2021/07/26 00:03:29;;;;;;;6.70;4.47;;;22.40;69.40;;;;;;4955392;29;20290;-52
2021/07/26 00:05:59;;;;;;;5.20;4.70;;;22.30;69.70;;;;;;4953166;29;20196;-52
2021/07/26 00:08:25;;;;;;;7.07;4.33;;;22.40;69.30;;;;;;4954988;29;20530;-52
2021/07/26 00:10:58;;;;;;;5.47;4.47;;;22.30;69.50;;;;;;4954150;28;20482;-52
2021/07/26 00:13:24;;;;;;;4.90;4.50;;;22.10;69.70;;;;;;4954948;28;20443;-53
2021/07/26 00:15:50;;;;;;;6.53;4.50;;;22.10;69.70;;;;;;4954221;28;20424;-51
2021/07/26 00:18:15;;;;;;;4.90;4.50;;;22.10;70.00;;;;;;4954780;28;20236;-51
2021/07/26 00:20:41;;;;;;;5.43;4.43;;;22.00;70.20;;;;;;4945199;29;20682;-51
2021/07/26 00:23:07;;;;;;;4.80;4.30;;;22.10;69.80;;;;;;4935780;29;20228;-51
2021/07/26 00:25:33;;;;;;;5.00;4.60;;;22.20;69.70;;;;;;4934977;29;20503;-52
2021/07/26 00:27:59;;;;;;;4.47;4.07;;;22.10;69.60;;;;;;4935625;29;20193;-52
2021/07/26 00:30:24;;;;;;;4.70;4.30;;;22.10;69.60;;;;;;4935054;29;20319;-53
2021/07/26 00:32:50;;;;;;;5.00;4.60;;;22.30;69.40;;;;;;4933446;29;20201;-51
2021/07/26 00:35:15;;;;;;;4.40;4.00;;;22.20;69.30;;;;;;4944396;29;20191;-52
2021/07/26 00:37:41;;;;;;;5.20;4.70;;;22.30;69.20;;;;;;4951659;29;20203;-53
2021/07/26 00:40:09;;;;;;;5.30;4.80;;;22.40;69.00;;;;;;4935522;29;20228;-52
2021/07/26 00:42:36;;;;;;;5.70;3.97;;;22.30;68.90;;;;;;4934144;29;20643;-53
2021/07/26 00:45:02;;;;;;;5.90;4.63;;;22.20;69.00;;;;;;4941070;29;20423;-51
2021/07/26 00:47:28;;;;;;;6.03;4.50;;;22.30;69.10;;;;;;4953723;29;20424;-53
2021/07/26 00:49:54;;;;;;;4.70;4.30;;;22.30;68.90;;;;;;4954442;29;20510;-52
2021/07/26 00:52:19;;;;;;;5.13;4.40;;;22.30;69.00;;;;;;4953219;29;20674;-52
2021/07/26 00:54:46;;;;;;;4.77;4.37;;;22.30;68.90;;;;;;4954252;28;20283;-47
2021/07/26 00:57:12;;;;;;;6.73;4.43;;;22.30;68.70;;;;;;4953882;29;20330;-49
2021/07/26 00:59:39;;;;;;;4.67;4.27;;;22.30;68.60;;;;;;4952634;29;20463;-49
2021/07/26 01:02:04;;;;;;;5.00;4.60;;;22.30;68.60;;;;;;4952986;28;20434;-51
2021/07/26 01:04:30;;;;;;;4.60;4.20;;;22.30;68.30;;;;;;4954058;29;20955;-51
2021/07/26 01:06:56;;;;;;;4.73;4.33;;;22.20;68.20;;;;;;4953582;28;20565;-48
2021/07/26 01:09:22;;;;;;;4.67;3.90;;;22.20;68.10;;;;;;4953897;29;20632;-49
2021/07/26 01:11:48;;;;;;;4.47;4.07;;;22.20;68.00;;;;;;4952879;29;20487;-48
2021/07/26 01:14:17;;;;;;;4.60;4.20;;;22.20;67.90;;;;;;4954047;28;20436;-51
2021/07/26 01:16:44;;;;;;;5.17;4.43;;;22.30;67.80;;;;;;4953188;28;20239;-52
2021/07/26 01:19:11;;;;;;;4.60;4.30;;;22.20;68.30;;;;;;4953667;29;20459;-51
2021/07/26 01:21:36;;;;;;;6.70;4.50;;;22.30;68.20;;;;;;4936613;29;20440;-52
2021/07/26 01:24:03;;;;;;;4.93;4.00;;;22.30;68.00;;;;;;4934485;29;20491;-53
2021/07/26 01:26:30;;;;;;;5.00;4.50;;;22.20;68.20;;;;;;4932517;29;20724;-52
2021/07/26 01:29:04;;;;;;;4.50;4.10;;;22.10;68.80;;;;;;4934724;29;20431;-51
2021/07/26 01:31:30;;;;;;;5.07;4.57;;;22.00;69.50;;;;;;4933585;29;20534;-53
2021/07/26 01:33:56;;;;;;;6.10;4.60;;;22.00;69.30;;;;;;4934749;29;20424;-52
2021/07/26 01:36:22;;;;;;;4.50;3.93;;;22.20;68.70;;;;;;4933867;29;20424;-52
2021/07/26 01:38:51;;;;;;;4.10;3.73;;;22.30;68.20;;;;;;4934636;29;20232;-51
2021/07/26 01:41:20;;;;;;;3.93;3.53;;;22.50;67.70;;;;;;4933535;29;20432;-51
2021/07/26 01:44:01;;;;;;;4.10;3.67;;;22.60;67.20;;;;;;4933938;29;20818;-52
2021/07/26 01:46:43;;;;;;;4.17;3.77;;;22.60;66.80;;;;;;4950348;29;20436;-53
2021/07/26 01:49:53;;;;;;;4.60;4.20;;;22.60;66.50;;;;;;4953899;28;20444;-52
2021/07/26 01:52:19;;;;;;;5.43;4.00;;;22.70;66.20;;;;;;4891675;29;20994;-51
2021/07/26 01:54:46;;;;;;;4.20;3.90;;;22.60;66.50;;;;;;4894630;29;20430;-47
2021/07/26 01:57:12;;;;;;;4.00;3.70;;;22.60;66.50;;;;;;4923694;29;20808;-49
2021/07/26 01:59:38;;;;;;;4.53;4.23;;;22.70;66.50;;;;;;4953488;28;20439;-50
2021/07/26 02:02:04;;;;;;;4.50;4.10;;;22.60;66.80;;;;;;4952431;28;20451;-48
2021/07/26 02:04:29;;;;;;;4.83;4.43;;;22.60;66.70;;;;;;4953627;28;20274;-47
2021/07/26 02:06:55;;;;;;;4.97;4.13;;;22.80;66.30;;;;;;4952706;29;20515;-49
2021/07/26 02:09:20;;;;;;;4.47;4.10;;;22.70;66.20;;;;;;4953299;28;20204;-48
2021/07/26 02:11:46;;;;;;;5.90;4.30;;;22.60;66.50;;;;;;4952490;29;20196;-50
2021/07/26 02:14:12;;;;;;;4.97;4.30;;;22.60;66.50;;;;;;4953379;29;20226;-51
2021/07/26 02:16:38;;;;;;;4.70;4.30;;;22.60;66.80;;;;;;4952601;28;20234;-47
2021/07/26 02:19:05;;;;;;;5.07;4.67;;;22.60;66.60;;;;;;4951899;28;20302;-47
2021/07/26 02:21:32;;;;;;;5.30;4.23;;;22.50;66.90;;;;;;4936609;29;20456;-52
2021/07/26 02:23:58;;;;;;;4.53;4.13;;;22.50;66.80;;;;;;4934301;29;20471;-48
2021/07/26 02:26:23;;;;;;;4.57;4.10;;;22.60;66.70;;;;;;4933611;29;20902;-47
2021/07/26 02:28:49;;;;;;;5.97;4.27;;;22.60;66.60;;;;;;4934200;29;20201;-52
2021/07/26 02:31:14;;;;;;;5.03;4.53;;;22.60;66.70;;;;;;4933022;29;20596;-49
2021/07/26 02:33:40;;;;;;;5.00;4.50;;;22.70;66.30;;;;;;4934229;29;20540;-49
2021/07/26 02:36:05;;;;;;;4.80;4.40;;;22.70;66.10;;;;;;4933308;29;20201;-47
2021/07/26 02:38:31;;;;;;;6.53;4.30;;;22.80;65.80;;;;;;4933970;29;20189;-49
2021/07/26 02:40:57;;;;;;;4.97;4.33;;;22.80;65.50;;;;;;4932999;29;20228;-51
2021/07/26 02:43:22;;;;;;;10.13;4.23;;;22.70;65.80;;;;;;4934001;29;20201;-50
2021/07/26 02:45:48;;;;;;;5.20;4.57;;;22.60;66.50;;;;;;4943113;29;20238;-49
2021/07/26 02:48:14;;;;;;;5.10;4.20;;;22.30;67.60;;;;;;4953178;29;20200;-50
2021/07/26 02:50:40;;;;;;;4.90;4.50;;;22.20;68.90;;;;;;4951845;29;20267;-52
2021/07/26 02:53:06;;;;;;;4.40;4.10;;;21.90;69.10;;;;;;4953065;28;20472;-47
2021/07/26 02:55:31;;;;;;;4.50;4.10;;;22.00;69.20;;;;;;4955609;28;20223;-47
2021/07/26 02:57:57;;;;;;;5.03;4.57;;;21.90;69.00;;;;;;4956474;28;20192;-47
2021/07/26 03:00:23;;;;;;;5.07;4.50;;;22.00;68.80;;;;;;4955998;29;20239;-51
2021/07/26 03:02:48;;;;;;;5.47;4.97;;;22.00;68.50;;;;;;4956018;28;20692;-51
2021/07/26 03:05:14;;;;;;;5.07;4.57;;;22.10;68.10;;;;;;4956164;28;20708;-47
2021/07/26 03:07:40;;;;;;;7.50;4.63;;;22.20;67.80;;;;;;4955701;28;20192;-47
2021/07/26 03:10:06;;;;;;;5.50;5.07;;;22.40;67.50;;;;;;4955326;29;21062;-50
2021/07/26 03:12:31;;;;;;;4.93;4.53;;;22.20;67.50;;;;;;4954435;28;20200;-51
2021/07/26 03:14:57;;;;;;;4.70;4.00;;;22.20;67.70;;;;;;4956107;29;20486;-48
2021/07/26 03:17:25;;;;;;;4.60;4.20;;;22.20;67.60;;;;;;4955253;28;20759;-49
2021/07/26 03:19:53;;;;;;;4.97;4.50;;;22.20;67.40;;;;;;4953464;29;20212;-50
2021/07/26 03:22:58;;;;;;;6.40;4.47;;;22.20;67.30;;;;;;4935795;29;20523;-53
2021/07/26 03:25:25;;;;;;;5.27;4.80;;;22.10;67.60;;;;;;4936347;29;20515;-49
2021/07/26 03:27:51;;;;;;;6.67;3.90;;;22.00;68.10;;;;;;4936459;29;20440;-48
2021/07/26 03:30:18;;;;;;;5.80;4.20;;;22.10;67.90;;;;;;4936564;29;20492;-49
2021/07/26 03:32:44;;;;;;;6.07;4.00;;;22.10;67.90;;;;;;4936107;29;20647;-48
2021/07/26 03:35:11;;;;;;;6.23;4.10;;;22.20;67.30;;;;;;4936715;29;20440;-49
2021/07/26 03:37:37;;;;;;;4.47;4.07;;;22.10;67.20;;;;;;4934693;29;20500;-47
2021/07/26 03:40:04;;;;;;;4.57;4.20;;;22.00;67.80;;;;;;4936264;29;20936;-50
2021/07/26 03:42:32;;;;;;;6.17;4.60;;;21.90;68.10;;;;;;4935894;29;20208;-48
2021/07/26 03:44:57;;;;;;;4.17;3.87;;;22.00;67.90;;;;;;4941239;29;20451;-49
2021/07/26 03:47:24;;;;;;;5.77;4.10;;;22.00;68.10;;;;;;4954900;29;20454;-47
2021/07/26 03:49:49;;;;;;;5.00;4.60;;;21.90;68.10;;;;;;4955593;28;20295;-47
2021/07/26 03:52:15;;;;;;;4.63;4.23;;;21.80;68.80;;;;;;4953500;28;20440;-47
2021/07/26 03:54:41;;;;;;;5.20;4.30;;;21.80;68.60;;;;;;4955686;29;20207;-48
2021/07/26 03:57:06;;;;;;;4.10;3.70;;;21.80;68.70;;;;;;4954814;29;20889;-47
2021/07/26 03:59:32;;;;;;;5.17;4.67;;;21.90;68.40;;;;;;4955549;29;20199;-46
2021/07/26 04:01:57;;;;;;;6.37;4.20;;;21.70;68.70;;;;;;4954538;29;20192;-48
2021/07/26 04:04:24;;;;;;;5.57;4.50;;;21.50;69.70;;;;;;4953792;29;20266;-48
2021/07/26 04:06:54;;;;;;;5.83;4.30;;;21.40;70.20;;;;;;4953748;28;20203;-49
2021/07/26 04:09:22;;;;;;;5.57;4.30;;;21.30;70.80;;;;;;4955030;28;20900;-49
2021/07/26 04:11:52;;;;;;;5.40;3.87;;;21.40;70.40;;;;;;4954123;28;20428;-49
2021/07/26 04:14:21;;;;;;;5.00;4.07;;;21.60;70.00;;;;;;4955199;29;20431;-47
2021/07/26 04:16:46;;;;;;;6.20;4.17;;;21.70;69.50;;;;;;4954271;28;20970;-47
2021/07/26 04:19:12;;;;;;;5.03;4.50;;;21.70;69.70;;;;;;4954795;28;20468;-47
2021/07/26 04:21:38;;;;;;;4.67;4.23;;;21.80;69.30;;;;;;4937249;28;20207;-47
2021/07/26 04:24:03;;;;;;;4.97;4.40;;;21.90;69.00;;;;;;4935788;29;20224;-48
2021/07/26 04:26:29;;;;;;;5.50;5.10;;;22.10;68.70;;;;;;4935291;29;20676;-51
2021/07/26 04:28:56;;;;;;;5.10;4.67;;;22.10;68.10;;;;;;4935464;29;20229;-52
2021/07/26 04:31:22;;;;;;;5.70;5.20;;;22.20;67.70;;;;;;4942861;28;20293;-48
2021/07/26 04:33:48;;;;;;;6.80;4.50;;;22.30;67.50;;;;;;4954744;29;22237;-51
2021/07/26 04:36:13;;;;;;;4.93;4.53;;;22.40;67.20;;;;;;4954225;29;21051;-51
2021/07/26 04:38:39;;;;;;;4.80;4.30;;;22.50;67.00;;;;;;4954555;29;20420;-48
2021/07/26 04:41:05;;;;;;;4.60;4.20;;;22.50;66.70;;;;;;4953499;28;20207;-50
2021/07/26 04:43:31;;;;;;;4.47;4.03;;;22.50;66.70;;;;;;4954542;28;20196;-49
2021/07/26 04:45:56;;;;;;;6.13;3.97;;;22.60;66.40;;;;;;4953838;29;20597;-53
2021/07/26 04:48:23;;;;;;;4.87;4.03;;;22.70;66.00;;;;;;4954506;28;20192;-49
2021/07/26 04:50:48;;;;;;;4.97;4.07;;;22.80;65.80;;;;;;4953372;29;20243;-52
2021/07/26 04:53:14;;;;;;;5.10;4.27;;;22.70;65.70;;;;;;4954505;29;20828;-52
2021/07/26 04:55:40;;;;;;;5.40;4.67;;;22.70;66.30;;;;;;4953692;29;20202;-50
2021/07/26 04:58:05;;;;;;;8.23;5.53;;;22.70;66.20;;;;;;4952473;29;20311;-50
2021/07/26 05:00:31;;;;;;;6.17;5.57;;;22.70;66.20;;;;;;4953160;29;20204;-51
2021/07/26 05:02:57;;;;;;;5.37;4.87;;;22.60;67.00;;;;;;4954272;28;20215;-50
2021/07/26 05:05:22;;;;;;;5.30;4.23;;;22.30;67.30;;;;;;4953939;28;20641;-51
2021/07/26 05:07:48;;;;;;;4.13;3.73;;;22.50;67.40;;;;;;4953849;28;20200;-49
2021/07/26 05:10:14;;;;;;;5.00;4.50;;;22.50;67.20;;;;;;4953763;28;20235;-49
2021/07/26 05:12:40;;;;;;;5.33;4.90;;;22.60;66.90;;;;;;4953371;28;20440;-51
2021/07/26 05:15:06;;;;;;;6.30;4.33;;;22.60;66.60;;;;;;4953781;29;20206;-52
2021/07/26 05:17:31;;;;;;;4.70;4.20;;;22.70;66.30;;;;;;4953281;28;20267;-48
2021/07/26 05:19:57;;;;;;;6.10;4.60;;;22.20;67.50;;;;;;4950197;29;20967;-47
2021/07/26 05:22:23;;;;;;;4.20;3.80;;;22.00;68.90;;;;;;4933931;29;20189;-54
2021/07/26 05:24:50;;;;;;;5.37;4.30;;;22.10;68.60;;;;;;4933304;29;20197;-52
2021/07/26 05:27:16;;;;;;;8.03;4.00;;;22.30;67.80;;;;;;4934131;29;20196;-51
2021/07/26 05:29:42;;;;;;;6.77;4.43;;;22.50;67.20;;;;;;4934641;29;20482;-52
2021/07/26 05:32:09;;;;;;;5.63;4.80;;;22.40;67.20;;;;;;4949540;29;20652;-49
2021/07/26 05:34:35;;;;;;;5.80;5.27;;;22.30;67.70;;;;;;4953645;28;20443;-48
2021/07/26 05:37:01;;;;;;;6.60;4.83;;;22.30;67.70;;;;;;4953060;29;20792;-50
2021/07/26 05:39:27;;;;;;;6.13;5.37;;;22.20;67.90;;;;;;4953846;28;20427;-53
2021/07/26 05:41:54;;;;;;;6.73;5.67;;;22.30;67.90;;;;;;4952838;28;20432;-51
2021/07/26 05:44:20;;;;;;;5.43;4.70;;;22.50;67.50;;;;;;4952307;28;20686;-52
2021/07/26 05:46:45;;;;;;;5.40;4.90;;;22.60;66.90;;;;;;4953111;29;20526;-53
2021/07/26 05:49:11;;;;;;;4.80;4.10;;;22.60;66.50;;;;;;4951857;29;20191;-52
2021/07/26 05:51:37;;;;;;;6.10;5.00;;;22.60;66.40;;;;;;4952323;29;20278;-46
2021/07/26 05:54:04;;;;;;;6.63;4.77;;;22.70;66.20;;;;;;4953710;28;20211;-51
2021/07/26 05:56:30;;;;;;;5.00;4.60;;;22.80;66.00;;;;;;4953129;29;20195;-52
2021/07/26 05:58:57;;;;;;;6.13;4.83;;;22.90;65.80;;;;;;4953509;29;20786;-49
2021/07/26 06:01:35;;;;;;;5.67;4.90;;;23.00;65.70;;;;;;4952605;29;20436;-53
2021/07/26 06:04:01;;;;;;;5.53;5.07;;;23.00;65.60;;;;;;4953457;29;20438;-53
2021/07/26 06:06:27;;;;;;;4.83;4.43;;;23.00;65.70;;;;;;4953004;28;20795;-48
2021/07/26 06:08:52;;;;;;;4.80;4.40;;;23.10;65.90;;;;;;4953230;28;20200;-50
2021/07/26 06:11:18;;;;;;;5.67;4.63;;;23.20;66.10;;;;;;4952514;29;20224;-51
2021/07/26 06:13:44;;;;;;;5.13;4.73;;;23.30;65.80;;;;;;4953398;29;20208;-50
2021/07/26 06:16:09;;;;;;;7.63;4.33;;;23.40;65.70;;;;;;4951019;29;20428;-48
2021/07/26 06:18:35;;;;;;;5.17;4.67;;;23.60;65.30;;;;;;4952921;29;20232;-49
2021/07/26 06:21:07;;;;;;;7.63;4.80;;;23.70;64.60;;;;;;4940557;28;20200;-52
2021/07/26 06:23:33;;;;;;;5.70;5.00;;;23.90;64.20;;;;;;4934016;29;20441;-48
2021/07/26 06:25:59;;;;;;;7.00;4.17;;;24.00;64.00;;;;;;4933464;29;20426;-48
2021/07/26 06:28:24;;;;;;;5.70;4.10;;;24.10;63.80;;;;;;4934400;29;20508;-49
2021/07/26 06:30:50;;;;;;;4.70;4.30;;;24.30;63.40;;;;;;4942475;29;20235;-50
2021/07/26 06:33:16;;;;;;;5.43;4.20;;;24.40;62.20;;;;;;4957039;28;20227;-49
2021/07/26 06:35:42;;;;;;;4.40;4.10;;;24.50;63.00;;;;;;4956501;29;20206;-47
2021/07/26 06:38:07;;;;;;;3.90;3.53;;;24.50;61.70;;;;;;4956825;28;20631;-47
2021/07/26 06:40:33;;;;;;;3.70;3.40;;;24.50;61.70;;;;;;4955913;29;20657;-48
2021/07/26 06:42:59;;;;;;;4.83;4.10;;;24.50;61.00;;;;;;4955224;29;20199;-50
2021/07/26 06:45:26;;;;;;;4.90;4.40;;;24.70;61.10;;;;;;4956372;28;20431;-48
2021/07/26 06:47:52;;;;;;;8.10;4.77;;;24.70;60.00;;;;;;4956550;28;20196;-48
2021/07/26 06:50:18;;;;;;;4.00;3.60;;;24.70;60.00;;;;;;4956505;28;20494;-47
2021/07/26 06:52:44;;;;;;;4.10;3.70;;;24.80;59.90;;;;;;4955894;28;20435;-48
2021/07/26 06:55:10;;;;;;;4.43;4.03;;;24.80;60.30;;;;;;4956365;29;20446;-47
2021/07/26 06:57:36;;;;;;;6.10;4.53;;;24.90;59.80;;;;;;4955859;29;20262;-47
2021/07/26 07:00:03;;;;;;;4.33;3.93;;;25.20;59.30;;;;;;4956124;29;20267;-47
2021/07/26 07:02:29;;;;;;;4.50;3.80;;;25.40;58.40;;;;;;4955545;28;20196;-47
2021/07/26 07:04:54;;;;;;;4.07;3.67;;;25.40;58.00;;;;;;4956525;29;20428;-47
2021/07/26 07:07:20;;;;;;;8.07;4.60;;;25.50;57.80;;;;;;4955499;28;20200;-47
2021/07/26 07:09:46;;;;;;;4.63;4.23;;;25.40;57.70;;;;;;4954269;29;20334;-50
2021/07/26 07:12:18;;;;;;;5.97;4.00;;;25.30;57.90;;;;;;4955674;29;20201;-48
2021/07/26 07:14:43;;;;;;;6.13;4.60;;;25.30;58.20;;;;;;4956301;29;20279;-52
2021/07/26 07:17:09;;;;;;;5.37;4.60;;;25.20;58.30;;;;;;4955679;28;20558;-50
2021/07/26 07:19:38;;;;;;;6.67;4.27;;;25.30;59.10;;;;;;4955883;29;20672;-52
2021/07/26 07:22:03;;;;;;;6.80;4.50;;;25.00;59.50;;;;;;4935722;29;20201;-51
2021/07/26 07:24:29;;;;;;;6.87;4.43;;;25.00;60.20;;;;;;4936758;29;21008;-53
2021/07/26 07:26:54;;;;;;;5.70;4.53;;;25.10;60.90;;;;;;4936708;29;20541;-52
2021/07/26 07:29:20;;;;;;;4.33;4.03;;;25.30;60.40;;;;;;4936743;29;20295;-51
2021/07/26 07:31:46;;;;;;;4.90;4.37;;;25.60;59.20;;;;;;4948599;29;20234;-49
2021/07/26 07:34:12;;;;;;;4.03;3.63;;;25.70;58.40;;;;;;4955978;28;20199;-51
2021/07/26 07:36:39;;;;;;;4.73;4.13;;;25.80;58.20;;;;;;4936432;29;20192;-52
2021/07/26 07:39:04;;;;;;;4.90;3.87;;;25.60;57.40;;;;;;4955899;29;20431;-53
2021/07/26 07:41:30;;;;;;;4.40;4.00;;;25.50;58.00;;;;;;4953546;28;20435;-52
2021/07/26 07:43:55;;;;;;;4.10;3.43;;;25.60;58.70;;;;;;4938464;28;20192;-52
2021/07/26 07:46:21;;;;;;;4.23;3.83;;;25.70;58.00;;;;;;4955114;29;20535;-51
2021/07/26 07:48:48;;;;;;;4.47;3.93;;;25.90;57.60;;;;;;4955655;28;20191;-51
2021/07/26 07:51:14;;;;;;;4.10;3.70;;;26.30;56.80;;;;;;4954666;28;20239;-52
2021/07/26 07:53:40;;;;;;;4.73;4.27;;;26.40;56.30;;;;;;4955312;28;20879;-52
2021/07/26 07:56:05;;;;;;;4.53;4.10;;;26.40;56.20;;;;;;4955179;28;20900;-51
2021/07/26 07:58:34;;;;;;;4.90;4.50;;;26.40;56.60;;;;;;4955298;28;20192;-53
2021/07/26 08:00:59;;;;;;;4.47;4.00;;;26.50;57.10;;;;;;4954554;28;20259;-52
2021/07/26 08:03:26;;;;;;;4.07;3.77;;;26.70;56.90;;;;;;4953287;28;20427;-52
2021/07/26 08:05:52;;;;;;;4.57;3.80;;;26.80;55.30;;;;;;4954607;29;20226;-52
2021/07/26 08:08:18;;;;;;;4.37;3.97;;;27.00;55.10;;;;;;4954966;29;20924;-51
2021/07/26 08:10:44;;;;;;;4.67;4.27;;;27.20;55.30;;;;;;4954302;28;20570;-51
2021/07/26 08:13:10;;;;;;;3.93;3.53;;;27.20;54.50;;;;;;4954791;29;20644;-53
2021/07/26 08:15:36;;;;;;;5.70;4.50;;;27.60;54.70;;;;;;4954813;29;20486;-51
2021/07/26 08:18:02;;;;;;;5.13;3.80;;;27.70;53.60;;;;;;4954874;29;20772;-52
2021/07/26 08:20:29;;;;;;;4.70;4.20;;;27.70;54.10;;;;;;4946906;28;20673;-52
2021/07/26 08:22:55;;;;;;;4.40;4.00;;;28.00;54.10;;;;;;4935720;29;20519;-52
2021/07/26 08:25:20;;;;;;;5.47;3.97;;;28.30;53.50;;;;;;4935985;29;20488;-52
2021/07/26 08:27:58;;;;;;;4.13;3.73;;;28.60;52.80;;;;;;4934485;29;20869;-51
2021/07/26 08:30:27;;;;;;;4.00;3.63;;;28.90;51.40;;;;;;4937102;29;20232;-49
2021/07/26 08:32:53;;;;;;;4.23;3.37;;;28.90;50.40;;;;;;4954401;29;20979;-48
2021/07/26 08:35:20;;;;;;;4.17;3.77;;;29.00;49.80;;;;;;4954720;29;20765;-50
2021/07/26 08:37:45;;;;;;;4.30;3.90;;;29.20;49.40;;;;;;4954102;28;20456;-47
2021/07/26 08:40:12;;;;;;;5.90;3.83;;;29.50;48.70;;;;;;4954366;29;20963;-48
2021/07/26 08:42:38;;;;;;;3.87;3.57;;;29.70;48.20;;;;;;4953728;29;20196;-53
2021/07/26 08:45:04;;;;;;;5.13;4.00;;;29.80;47.90;;;;;;4954572;29;20424;-48
2021/07/26 08:47:32;;;;;;;3.83;3.53;;;30.00;47.90;;;;;;4953807;29;20511;-52
2021/07/26 08:50:01;;;;;;;3.40;3.10;;;30.30;47.10;;;;;;4954154;29;20475;-52
2021/07/26 08:52:36;;;;;;;5.63;3.77;;;30.40;46.80;;;;;;4953646;28;20431;-53
2021/07/26 08:55:02;;;;;;;5.50;3.90;;;30.60;46.10;;;;;;4952718;29;20435;-53
2021/07/26 08:57:28;;;;;;;3.77;3.50;;;30.40;45.60;;;;;;4953752;29;20446;-48
2021/07/26 08:59:54;;;;;;;6.43;3.70;;;30.20;46.40;;;;;;4953886;28;20984;-48
2021/07/26 09:02:20;;;;;;;4.33;3.70;;;29.90;48.30;;;;;;4953675;28;20530;-48
2021/07/26 09:04:46;;;;;;;3.83;3.53;;;30.30;48.20;;;;;;4954092;29;20199;-48
2021/07/26 09:07:11;;;;;;;4.47;3.43;;;30.70;46.80;;;;;;4953564;28;20200;-48
2021/07/26 09:09:44;;;;;;;4.17;3.60;;;30.90;46.70;;;;;;4953543;29;20214;-49
2021/07/26 09:12:31;;;;;;;3.90;3.50;;;30.90;45.70;;;;;;4953456;28;20627;-48
2021/07/26 09:14:58;;;;;;;4.17;3.63;;;31.00;45.50;;;;;;4943591;29;20987;-48
2021/07/26 09:17:23;;;;;;;3.40;3.10;;;31.10;45.10;;;;;;4953181;29;20963;-50
2021/07/26 09:19:59;;;;;;;4.60;4.20;;;31.10;44.20;;;;;;4945835;29;20444;-49
2021/07/26 09:22:51;;;;;;;4.33;3.93;;;31.10;44.20;;;;;;4932566;29;20242;-48
2021/07/26 09:25:21;;;;;;;4.03;3.73;;;31.10;44.90;;;;;;4932884;29;20460;-53
2021/07/26 09:28:07;;;;;;;4.50;3.70;;;31.20;45.40;;;;;;4933851;29;20440;-49
2021/07/26 09:30:37;;;;;;;4.37;3.80;;;31.50;44.70;;;;;;4936925;29;20491;-52
2021/07/26 09:33:04;;;;;;;3.50;3.20;;;31.70;43.30;;;;;;4953677;28;20443;-51
2021/07/26 09:35:30;;;;;;;3.87;3.33;;;31.80;44.30;;;;;;4953238;28;20439;-49
2021/07/26 09:38:03;;;;;;;3.70;3.40;;;31.90;42.40;;;;;;4953590;29;20923;-53
2021/07/26 09:40:34;;;;;;;8.90;3.50;;;32.20;43.90;;;;;;4952761;29;20286;-52
2021/07/26 09:43:24;;;;;;;3.73;3.20;;;32.40;43.00;;;;;;4953605;28;20492;-49
2021/07/26 09:45:51;;;;;;;3.30;3.00;;;32.50;41.00;;;;;;4952980;28;20443;-49
2021/07/26 09:48:18;;;;;;;3.50;3.20;;;32.20;40.10;;;;;;4951839;29;20507;-48
2021/07/26 09:50:49;;;;;;;4.90;3.00;;;32.40;40.70;;;;;;4952794;28;20625;-48
2021/07/26 09:53:22;;;;;;;3.90;3.40;;;32.40;40.20;;;;;;4953863;29;20425;-48
2021/07/26 09:55:59;;;;;;;3.17;2.97;;;32.40;40.50;;;;;;4952772;29;21075;-48
2021/07/26 09:58:39;;;;;;;4.33;3.10;;;32.50;40.20;;;;;;4941108;29;20811;-48
2021/07/26 10:01:06;;;;;;;5.50;3.53;;;32.40;39.70;;;;;;4933436;29;20498;-52
2021/07/26 10:03:32;;;;;;;4.03;3.20;;;32.20;40.20;;;;;;4934796;29;20447;-48
2021/07/26 10:05:59;;;;;;;3.33;3.13;;;32.30;40.60;;;;;;4937748;29;20424;-53
2021/07/26 10:08:27;;;;;;;3.33;3.00;;;32.40;41.20;;;;;;4938178;29;20877;-49
2021/07/26 10:10:53;;;;;;;5.50;2.83;;;32.30;40.10;;;;;;4937280;29;20574;-53
2021/07/26 10:13:19;;;;;;;2.87;2.67;;;32.60;40.20;;;;;;4938372;29;20436;-49
2021/07/26 10:15:45;;;;;;;5.37;2.87;;;33.00;39.60;;;;;;4936111;29;21047;-50
2021/07/26 10:18:10;;;;;;;3.40;2.90;;;33.40;40.50;;;;;;4940726;29;20471;-53
2021/07/26 10:20:39;;;;;;;3.27;3.07;;;33.60;39.50;;;;;;4947960;29;20936;-51
2021/07/26 10:23:19;;;;;;;5.23;3.23;;;33.40;37.40;;;;;;4938136;29;20203;-49
2021/07/26 10:25:57;;;;;;;4.10;3.13;;;33.20;38.50;;;;;;4937643;29;20448;-52
2021/07/26 10:28:47;;;;;;;3.63;3.30;;;33.40;38.50;;;;;;4937754;29;20436;-49
2021/07/26 10:31:39;;;;;;;3.97;2.87;;;33.70;37.60;;;;;;4938403;29;20898;-50
2021/07/26 10:34:12;;;;;;;3.63;3.30;;;34.10;36.50;;;;;;4954139;29;20553;-52
2021/07/26 10:36:41;;;;;;;4.00;3.40;;;33.70;37.30;;;;;;4939333;29;20487;-54
2021/07/26 10:39:11;;;;;;;3.43;3.00;;;33.90;37.40;;;;;;4956645;28;20804;-54
2021/07/26 10:41:42;;;;;;;5.83;3.67;;;33.90;36.70;;;;;;4954186;29;20432;-52
2021/07/26 10:44:17;;;;;;;3.10;2.90;;;33.80;36.60;;;;;;4956697;29;20436;-51
2021/07/26 10:49:50;;;;;;;2.80;2.60;;;34.00;37.90;;;;;;4956213;29;20434;-54
2021/07/26 10:52:21;;;;;;;3.33;3.00;;;34.00;36.70;;;;;;4955884;29;20993;-51
2021/07/26 10:54:48;;;;;;;3.67;3.20;;;34.00;35.50;;;;;;4956442;29;20434;-49
2021/07/26 10:57:14;;;;;;;3.63;3.33;;;34.00;35.80;;;;;;4955695;29;20439;-51
2021/07/26 11:00:07;;;;;;;3.10;2.90;;;34.10;35.90;;;;;;4956009;28;20851;-49
2021/07/26 11:02:34;;;;;;;3.67;3.07;;;34.20;35.70;;;;;;4955693;29;20452;-50
2021/07/26 11:05:26;;;;;;;4.50;2.97;;;34.40;36.10;;;;;;4956462;29;20543;-52
2021/07/26 11:08:13;;;;;;;3.20;2.87;;;34.60;35.70;;;;;;4954451;28;20439;-54
2021/07/26 11:10:46;;;;;;;3.47;3.17;;;34.80;36.70;;;;;;4955194;29;20499;-51
2021/07/26 11:13:12;;;;;;;2.97;2.77;;;35.10;35.10;;;;;;4956274;28;20943;-53
2021/07/26 11:15:52;;;;;;;3.20;3.00;;;35.20;34.60;;;;;;4955485;28;20436;-49
2021/07/26 11:18:19;;;;;;;3.47;3.13;;;35.40;34.50;;;;;;4955620;29;20482;-54
2021/07/26 11:20:55;;;;;;;3.20;2.90;;;35.60;34.40;;;;;;4945986;29;20436;-49
2021/07/26 11:23:42;;;;;;;3.77;3.37;;;35.30;34.10;;;;;;4936845;29;20485;-54
2021/07/26 11:26:22;;;;;;;3.40;3.10;;;35.50;33.70;;;;;;4936349;29;20555;-49
2021/07/26 11:28:49;;;;;;;3.40;3.10;;;35.20;34.40;;;;;;4936783;29;20448;-52
2021/07/26 11:31:33;;;;;;;3.33;3.10;;;35.40;34.80;;;;;;4944841;29;20978;-49
2021/07/26 11:34:14;;;;;;;3.00;2.80;;;34.80;34.00;;;;;;4954453;29;20471;-50
2021/07/26 11:37:15;;;;;;;3.00;2.80;;;34.20;35.40;;;;;;4955232;29;20436;-54
2021/07/26 11:39:44;;;;;;;3.10;2.80;;;34.90;35.80;;;;;;4896035;29;20573;-49
2021/07/26 11:42:10;;;;;;;3.70;3.40;;;35.30;34.80;;;;;;4943813;28;20452;-51
2021/07/26 11:44:36;;;;;;;4.10;3.53;;;35.50;33.80;;;;;;4955629;28;20927;-52
2021/07/26 11:47:02;;;;;;;3.47;3.20;;;35.60;33.10;;;;;;4955057;29;20428;-53
2021/07/26 11:49:27;;;;;;;3.00;2.80;;;35.30;33.60;;;;;;4955163;29;20479;-50
2021/07/26 11:52:06;;;;;;;3.40;2.70;;;34.90;34.30;;;;;;4955142;29;20676;-51
2021/07/26 11:54:31;;;;;;;6.30;3.30;;;34.70;34.60;;;;;;4938590;29;20195;-49
2021/07/26 11:57:07;;;;;;;3.23;2.90;;;34.90;35.10;;;;;;4953870;28;20462;-54
2021/07/26 11:59:37;;;;;;;3.60;3.30;;;35.00;34.40;;;;;;4954057;29;20636;-53
2021/07/26 12:02:08;;;;;;;3.83;3.53;;;34.30;35.30;;;;;;4954256;28;20782;-52
2021/07/26 12:04:34;;;;;;;5.37;3.30;;;34.20;35.20;;;;;;4955535;29;20446;-51
2021/07/26 12:07:07;;;;;;;3.77;3.47;;;33.80;35.50;;;;;;4954629;28;20502;-52
2021/07/26 12:09:34;;;;;;;3.30;3.10;;;33.80;36.10;;;;;;4954717;29;20463;-51
2021/07/26 12:12:13;;;;;;;3.70;3.40;;;33.90;36.30;;;;;;4954633;28;20538;-53
2021/07/26 12:14:40;;;;;;;3.57;3.30;;;33.90;36.50;;;;;;4955105;28;20534;-51
2021/07/26 12:17:25;;;;;;;3.40;3.10;;;33.40;37.00;;;;;;4954417;29;20494;-53
2021/07/26 12:20:02;;;;;;;3.13;2.93;;;33.50;36.80;;;;;;4951546;29;20526;-48
2021/07/26 12:22:41;;;;;;;3.33;3.00;;;33.40;36.90;;;;;;4935435;29;20436;-50
2021/07/26 12:25:22;;;;;;;3.43;3.23;;;33.40;37.50;;;;;;4935923;29;20432;-48
2021/07/26 12:28:01;;;;;;;3.50;3.20;;;33.10;37.90;;;;;;4932948;29;20445;-52
2021/07/26 12:30:38;;;;;;;5.37;3.53;;;33.10;37.80;;;;;;4937415;29;20498;-51
2021/07/26 12:33:04;;;;;;;5.70;2.80;;;33.20;40.30;;;;;;4954623;29;20507;-53
2021/07/26 12:35:30;;;;;;;4.90;2.77;;;33.30;41.20;;;;;;4954257;29;20455;-49
2021/07/26 12:38:10;;;;;;;3.33;3.03;;;33.30;42.20;;;;;;4954704;28;20432;-53
2021/07/26 12:40:38;;;;;;;8.37;2.80;;;33.00;43.00;;;;;;4953722;29;20454;-53
2021/07/26 12:43:12;;;;;;;2.77;2.57;;;32.70;43.00;;;;;;4954687;28;20917;-51
2021/07/26 12:45:39;;;;;;;3.40;3.10;;;32.60;43.20;;;;;;4953859;28;20486;-50
2021/07/26 12:48:11;;;;;;;4.40;2.87;;;32.50;43.70;;;;;;4954528;29;20432;-53
2021/07/26 12:50:47;;;;;;;2.57;2.37;;;32.30;44.30;;;;;;4953272;29;20850;-50
2021/07/26 12:53:13;;;;;;;2.07;1.90;;;32.20;44.50;;;;;;4953036;28;20431;-48
2021/07/26 12:55:41;;;;;;;4.70;2.50;;;31.90;44.30;;;;;;4953632;28;20436;-48
2021/07/26 12:58:07;;;;;;;3.10;2.20;;;31.80;44.30;;;;;;4954331;28;20793;-48